Terminal Aerodrome Forecast
Issued by NWS Jacksonville, FL

Home | Current Version | Previous Version | Text Only | Print | Product List | Glossary On
Versions: 1 2 3 4 5 6 7 8 9 10 11 12 13 14 15 16 17 18 19 20 21 22 23
000
FTUS42 KJAX 050523
TAFJAX
TAF
KJAX 050523Z 0506/0606 VRB04KT P6SM FEW200
     FM050800 VRB03KT 4SM BR FEW010 SCT200
      TEMPO 0510/0513 1SM BR BKN010
     FM051400 21007KT P6SM SCT015 SCT250
     FM051600 22012G20KT P6SM SCT040 BKN250
     FM052200 23010KT P6SM BKN040
     FM060200 27009KT P6SM VCSH BKN025=

USA.gov is the U.S. government's official web portal to all federal, state and local government web resources and services.